Hit Tracker is now ESPN Home Run Tracker! Hit Tracker founder Greg Rybarczyk is now collaborating with the ESPN Stats & Information Group to continue tracking all MLB home runs, and helping baseball fans know "How Far It Really Went!™" Please credit any information on this site to ESPN Stats & Information Group. For more information and analysis on home runs, please contact founder Greg Rybarczyk. E-Mail ESPN Home Run Tracker
Main Page | Ballparks | Park Overlays | Glossary | Highlight Homers | Feedback | Bio | 3 Types of HR's | AAA Home Run Derby Last Updated: June 26, 2017, 10:36 pm PST
If you want to know "How Far It Really Went!", then you've come to the right place! Welcome to the ESPN Home Run Tracker, where you can find accurate, transparently verifiable distances for every home run hit in MLB games. Please also check out the ESPN MLB Scoreboard throughout the 2017 season! Contact us at grybar@hittrackeronline.com.
Season:
Ballpark detail for Great American Ball Park
Ballpark # of Home Runs HR per game Avg.
True
Distance
Avg.
Speed
Off
Bat
Avg.
Std.
Dist.
Great American Ball Park 112 3.03 395.2 103 392.4

Scatter Plot of Home Runs Great American Ball Park
 Overlay Ballpark:
Without range rings   With range rings

2017 Season Home Runs for Great American Ball Park
Click headers to sort
Date ^ Video Path Hitter Hitter
Team
Pitcher Pitcher
Team
INN Ballpark Type/
Luck
True
Dist.
Speed
Off
Bat
Elev.
Angle
Horiz.
Angle
Apex Impact Due To: Std.
Dist.
#
Parks
Wind Temp. Alt.
04/03/17 Video View Gennett, Scooter CIN Gomez, Jeanmar PHI 9 Great Americ... PL 371 99.9 26.6 109.5 75 -3 0 1 374 19
04/03/17 Video View Galvis, Freddy PHI Feldman, Scott CIN 2 Great Americ... PL 382 101.8 24.9 73.2 71 1 0 0 380 14
04/03/17 Video View Hernandez, Cesar PHI Feldman, Scott CIN 1 Great Americ... PL 377 102.1 26.9 68.5 81 -8 0 1 384 30
04/05/17 Video View Votto, Joey CIN Eickhoff, Jerad PHI 7 Great Americ... PL 388 100.9 32.7 81.5 126 -12 -2 2 400 27
04/06/17 Video View Duvall, Adam CIN Morgan, Adam PHI 7 Great Americ... ND 402 106.1 26.2 110.7 80 -1 -3 1 404 30
04/06/17 Video View Lorenzen, Michael CIN Morgan, Adam PHI 6 Great Americ... PL 427 106.7 23.1 86.3 79 1 -1 0 427 28
04/06/17 Video View Nava, Daniel PHI Davis, Rookie CIN 3 Great Americ... ND 423 104.8 28.1 79.4 98 3 -3 1 421 29
04/06/17 Video View Nava, Daniel PHI Davis, Rookie CIN 1 Great Americ... PL 411 106.3 24.5 77.1 79 0 -2 0 413 29
04/13/17 Video View Thames, Eric MIL Arroyo, Bronson CIN 5 Great Americ... PL 384 102.0 34.4 81.5 140 -17 1 3 398 27
04/13/17 Video View Braun, Ryan MIL Arroyo, Bronson CIN 3 Great Americ... JE 373 100.9 24.9 107.7 67 -1 0 0 373 14
04/14/17 Video View Cozart, Zack CIN Milone, Tommy MIL 2 Great Americ... PL 365 100.7 38.0 115.0 133 2 3 3 358 23
04/14/17 Video View Votto, Joey CIN Milone, Tommy MIL 3 Great Americ... PL 424 103.0 30.7 93.2 115 1 1 2 419 28
04/14/17 Video View Thames, Eric MIL Peralta, Wandy CIN 6 Great Americ... ND 416 105.9 26.0 76.3 85 -1 1 1 416 29
04/15/17 Video View Schebler, Scott CIN Davies, Zach MIL 2 Great Americ... JE 378 94.6 32.9 71.6 92 19 2 1 357 0
04/15/17 Video View Thames, Eric MIL Stephenson, Robert CIN 3 Great Americ... PL 392 99.4 33.1 66.1 104 15 2 2 374 25
04/15/17 Video View Perez, Hernan MIL Iglesias, Raisel CIN 6 Great Americ... JE/L 385 99.1 26.9 99.2 88 -7 1 0 389 18
04/15/17 Video View Thames, Eric MIL Cingrani, Tony CIN 7 Great Americ... PL 427 105.0 27.3 85.3 109 -7 1 1 430 28
04/16/17 Video View Braun, Ryan MIL Romano, Sal CIN 3 Great Americ... PL 381 97.7 29.2 73.4 88 5 1 1 374 2
04/16/17 Video View Shaw, Travis MIL Romano, Sal CIN 3 Great Americ... ND 430 111.4 27.7 62.9 93 0 1 1 427 30
04/16/17 Video View Suarez, Eugenio CIN Peralta, Wily MIL 4 Great Americ... ND 405 102.1 30.6 105.3 103 1 1 1 401 30
04/16/17 Video View Thames, Eric MIL Adleman, Tim CIN 7 Great Americ... ND 432 105.6 27.3 78.7 91 7 1 1 423 29
04/18/17 Video View Duvall, Adam CIN Gausman, Kevin BAL 2 Great Americ... JE 353 96.1 30.8 124.4 76 7 0 1 346 7
04/18/17 Video View Votto, Joey CIN Nuno, Vidal BAL 3 Great Americ... JE 356 97.3 27.2 63.2 63 5 0 0 350 7
04/18/17 Video View Jones, Adam BAL Arroyo, Bronson CIN 5 Great Americ... JE 368 106.3 22.2 115.0 53 1 0 1 368 12
04/20/17 Video View Schoop, Jonathan BAL Feldman, Scott CIN 2 Great Americ... ND 399 107.5 26.4 120.9 72 3 1 1 395 30
04/20/17 Video View Votto, Joey CIN Miley, Wade BAL 4 Great Americ... PL 421 105.3 24.0 94.8 84 -1 0 0 422 26
04/21/17 Video View Heyward, Jason CHC Adleman, Tim CIN 4 Great Americ... ND 433 110.4 24.0 77.7 84 -3 -1 1 435 30
04/21/17 Video View Baez, Javier CHC Adleman, Tim CIN 5 Great Americ... PL 418 104.0 26.0 100.2 78 6 -1 1 412 28
04/21/17 Video View Duvall, Adam CIN Lester, Jon CHC 5 Great Americ... PL 363 94.0 35.5 60.7 93 23 -2 2 340 3
04/21/17 Video View Rizzo, Anthony CHC Lorenzen, Michael CIN 9 Great Americ... PL 383 108.7 22.3 64.6 54 2 -2 0 381 24
04/22/17 Video View Rizzo, Anthony CHC Reed, Cody CIN 1 Great Americ... PL 355 97.3 34.5 70.6 116 -8 -5 2 366 29
04/22/17 Video View Votto, Joey CIN Arrieta, Jake CHC 1 Great Americ... JE/L 390 106.7 19.4 82.4 57 5 0 0 386 1
04/22/17 Video View Suarez, Eugenio CIN Arrieta, Jake CHC 1 Great Americ... PL 383 104.7 26.2 114.8 77 -5 -2 1 389 30
04/22/17 Video View Contreras, Willson CHC Reed, Cody CIN 2 Great Americ... JE/L 401 105.5 21.3 97.5 67 4 0 0 399 8
04/22/17 Video View Heyward, Jason CHC Bonilla, Lisalverto CIN 6 Great Americ... ND 403 103.6 30.3 72.1 103 1 -3 2 404 30
04/22/17 Video View Suarez, Eugenio CIN Grimm, Justin CHC 8 Great Americ... ND 426 104.5 27.7 83.5 103 2 -2 1 425 29
04/23/17 Video View Schebler, Scott CIN Lackey, John CHC 2 Great Americ... PL/L 421 100.2 36.6 81.8 126 42 -3 2 380 3
04/23/17 Video View Rizzo, Anthony CHC Arroyo, Bronson CIN 4 Great Americ... PL 390 101.0 28.2 67.9 75 9 -1 1 381 28
05/01/17 Video View McCutchen, Andrew PIT Garrett, Amir CIN 1 Great Americ... PL/L 373 94.9 40.9 112.1 124 53 -5 3 321 0
05/01/17 Video View Harrison, Josh PIT Garrett, Amir CIN 6 Great Americ... PL 351 96.1 34.5 64.5 109 -3 -3 2 355 16
05/01/17 Video View Duvall, Adam CIN Cole, Gerrit PIT 6 Great Americ... JE/L 406 98.2 33.5 98.2 108 22 -3 2 384 4
05/01/17 Video View Harrison, Josh PIT Storen, Drew CIN 8 Great Americ... PL/L 367 94.6 39.5 112.6 118 39 -5 3 330 0
05/02/17 Video View Votto, Joey CIN Glasnow, Tyler PIT 1 Great Americ... PL 446 108.6 22.8 88.1 89 6 0 0 440 30
05/02/17 Video View Harrison, Josh PIT Feldman, Scott CIN 4 Great Americ... PL 378 104.4 32.2 111.0 122 -23 -3 2 402 30
05/03/17 Video View Suarez, Eugenio CIN Taillon, Jameson PIT 1 Great Americ... JE 373 101.6 24.2 107.7 67 0 -1 0 373 11
05/03/17 Video View Hamilton, Billy CIN Taillon, Jameson PIT 4 Great Americ... PL 371 103.4 25.8 61.7 69 -3 -2 1 374 30
05/03/17 Video View Mesoraco, Devin CIN Williams, Trevor PIT 6 Great Americ... PL 392 103.9 27.0 108.3 91 -7 -2 1 400 30
05/03/17 Video View McCutchen, Andrew PIT Reed, Cody CIN 7 Great Americ... ND 425 110.9 23.5 103.4 87 -6 -1 1 432 30
05/05/17 Video View Arroyo, Christian SF Arroyo, Bronson CIN 2 Great Americ... JE 412 109.4 21.6 102.7 62 4 -1 0 408 22
05/06/17 Video View Duvall, Adam CIN Blach, Ty SF 1 Great Americ... ND 433 114.1 26.9 122.9 81 5 -2 1 429 30
05/06/17 Video View Kivlehan, Patrick CIN Blach, Ty SF 3 Great Americ... PL 400 100.7 27.2 82.9 92 -1 -1 1 402 15
05/06/17 Video View Suarez, Eugenio CIN Kontos, George SF 4 Great Americ... JE 368 108.1 21.0 113.0 52 -1 -1 0 370 13
05/07/17 Video View Schebler, Scott CIN Cueto, Johnny SF 3 Great Americ... PL 420 107.3 23.8 78.8 77 1 0 0 419 29
05/07/17 Video View Cozart, Zack CIN Cueto, Johnny SF 5 Great Americ... PL 383 100.1 32.8 106.4 116 -4 -1 2 386 27
05/08/17 Video View Votto, Joey CIN Tanaka, Masahiro NYY 7 Great Americ... PL 415 103.8 27.5 79.5 94 0 -1 1 415 29
05/08/17 Video View Gardner, Brett NYY Astin, Barrett CIN 8 Great Americ... ND 413 107.3 30.0 65.3 101 0 -3 -3 415 30
05/08/17 Video View Holliday, Matt NYY Astin, Barrett CIN 8 Great Americ... JE 420 103.5 25.5 88.2 88 0 -1 1 420 26
05/09/17 Video View Sanchez, Gary NYY Adleman, Tim CIN 1 Great Americ... ND 438 113.1 25.2 109.5 85 -2 -2 1 440 30
05/09/17 Video View Gregorius, Didi NYY Adleman, Tim CIN 2 Great Americ... PL 385 101.6 34.2 64.9 114 6 -3 2 380 29
05/19/17 Video View Suarez, Eugenio CIN Anderson, Tyler COL 4 Great Americ... JE 360 95.7 34.4 108.7 108 0 0 2 359 8
05/19/17 Video View Arenado, Nolan COL Peralta, Wandy CIN 6 Great Americ... PL 396 102.2 33.9 108.8 120 5 -1 2 390 30
05/19/17 Video View Amarista, Alexi COL Bonilla, Lisalverto CIN 6 Great Americ... PL 349 98.7 38.0 64.3 130 -4 -1 3 351 21
05/19/17 Video View Peraza, Jose CIN Lyles, Jordan COL 8 Great Americ... ND 418 109.8 30.5 118.6 106 -4 -1 2 421 30
05/20/17 Video View Suarez, Eugenio CIN Senzatela, Antonio COL 5 Great Americ... PL 416 102.8 28.2 91.6 107 -7 1 1 420 27
05/20/17 Video View Mesoraco, Devin CIN Qualls, Chad COL 6 Great Americ... ND 401 105.8 29.6 114.3 99 -9 2 1 406 30
05/20/17 Video View Schebler, Scott CIN Dunn, Mike COL 6 Great Americ... PL 394 102.8 32.6 79.3 129 -18 2 2 407 29
05/21/17 Video View Gonzalez, Carlos COL Arroyo, Bronson CIN 4 Great Americ... PL 349 103.5 37.9 63.2 145 -24 2 3 367 30
05/21/17 Video View LeMahieu, DJ COL Arroyo, Bronson CIN 5 Great Americ... PL 410 109.6 21.1 101.2 63 0 0 0 410 30
05/21/17 Video View Freeland, Kyle COL Arroyo, Bronson CIN 5 Great Americ... JE 343 95.0 32.0 63.6 91 -10 1 1 350 19
05/21/17 Video View Valaika, Pat COL Arroyo, Bronson CIN 6 Great Americ... JE 362 98.7 28.7 125.2 68 7 0 1 353 24
05/21/17 Video View Schebler, Scott CIN Freeland, Kyle COL 6 Great Americ... ND 398 109.2 25.4 58.6 71 -2 1 1 398 30
05/21/17 Video View Votto, Joey CIN Freeland, Kyle COL 6 Great Americ... JE/L 349 93.5 40.2 115.9 119 25 3 2 319 0
05/22/17 Video View Schebler, Scott CIN Tomlin, Josh CLE 2 Great Americ... ND 419 106.8 24.9 78.4 85 -3 0 1 421 29
05/22/17 Video View Kipnis, Jason CLE Feldman, Scott CIN 6 Great Americ... PL 400 100.8 26.9 83.3 91 -3 0 1 402 15
05/23/17 Video View Lindor, Francisco CLE Garrett, Amir CIN 1 Great Americ... PL 398 106.0 24.1 108.1 67 2 1 1 396 30
05/23/17 Video View Encarnacion, Edwin CLE Garrett, Amir CIN 3 Great Americ... ND 416 109.3 29.6 119.0 98 -3 1 1 417 30
05/23/17 Video View Gomes, Yan CLE Garrett, Amir CIN 3 Great Americ... JE 410 101.4 27.2 94.9 92 0 0 1 409 15
05/23/17 Video View Encarnacion, Edwin CLE Garrett, Amir CIN 5 Great Americ... JE 350 94.3 34.3 117.0 96 3 0 1 345 6
05/23/17 Video View Suarez, Eugenio CIN Shaw, Bryan CLE 7 Great Americ... JE 383 100.9 24.1 78.6 65 0 0 0 382 2
06/02/17 Video View Swanson, Dansby ATL Arroyo, Bronson CIN 5 Great Americ... PL 362 99.7 28.5 122.7 72 0 1 0 361 29
06/02/17 Video View Mesoraco, Devin CIN Ramirez, Jose ATL 10 Great Americ... JE/L 400 101.1 26.2 98.7 81 0 0 1 399 15
06/03/17 Video View Adams, Matt ATL Feldman, Scott CIN 5 Great Americ... PL 441 107.3 25.2 87.3 96 -4 2 1 441 30
06/03/17 Video View Peraza, Jose CIN Dickey, R.A. ATL 4 Great Americ... PL 371 98.9 27.4 108.9 77 -3 2 1 372 20
06/03/17 Video View Adams, Matt ATL Wood, Blake CIN 12 Great Americ... PL 388 100.0 31.2 102.7 110 -9 2 1 393 27
06/04/17 Video View Cozart, Zack CIN Teheran, Julio ATL 1 Great Americ... JE 342 93.0 34.5 122.4 89 3 3 2 334 2
06/04/17 Video View Santana, Danny ATL Garrett, Amir CIN 2 Great Americ... PL/L 381 98.1 32.3 100.7 112 -9 3 1 384 24
06/04/17 Video View Adams, Matt ATL Garrett, Amir CIN 3 Great Americ... ND 396 104.9 29.2 64.3 92 -7 3 2 398 30
06/04/17 Video View Inciarte, Ender ATL Garrett, Amir CIN 3 Great Americ... PL 408 101.6 31.0 79.5 112 -2 4 2 405 28
06/04/17 Video View Alcantara, Arismendy CIN Teheran, Julio ATL 5 Great Americ... PL 408 100.9 30.0 78.1 99 6 3 1 399 27
06/04/17 Video View Cozart, Zack CIN Motte, Jason ATL 6 Great Americ... JE 405 100.9 27.1 95.5 93 -3 2 1 404 13
06/06/17 Video View Gennett, Scooter CIN Wainwright, Adam STL 3 Great Americ... ND 424 102.8 32.1 69.2 97 0 0 0 398 30
06/06/17 Video View Gennett, Scooter CIN Gant, John STL 4 Great Americ... PL 424 105.6 23.6 87.1 72 0 0 0 423 26
06/06/17 Video View Gennett, Scooter CIN Gant, John STL 6 Great Americ... PL 375 97.6 33.8 120.3 92 15 0 2 359 27
06/06/17 Video View Piscotty, Stephen STL Adleman, Tim CIN 7 Great Americ... ND 425 107.9 34.5 122.0 116 22 0 2 401 30
06/06/17 Video View Gennett, Scooter CIN Brebbia, John STL 8 Great Americ... JE 378 106.2 21.9 71.4 55 0 0 0 378 18
06/07/17 Video View Carpenter, Matt STL Arroyo, Bronson CIN 3 Great Americ... PL 420 108.3 20.4 86.9 65 1 0 0 419 22
06/07/17 Video View Schebler, Scott CIN Lynn, Lance STL 5 Great Americ... JE 389 110.0 19.4 78.1 52 1 0 0 388 8
06/07/17 Video View Kivlehan, Patrick CIN Cecil, Brett STL 7 Great Americ... PL 400 104.4 22.8 81.2 69 0 0 0 400 25
06/07/17 Video View Votto, Joey CIN Rosenthal, Trevor STL 7 Great Americ... JE 383 101.8 24.3 103.7 72 -1 0 0 384 12
06/08/17 Video View Votto, Joey CIN Lyons, Tyler STL 6 Great Americ... PL 406 99.7 30.7 80.5 99 8 0 1 396 26
06/08/17 Video View Carpenter, Matt STL Brice, Austin CIN 8 Great Americ... PL 369 99.0 27.9 113.9 73 1 1 1 366 19
06/16/17 Video View Pederson, Joc LAD Adleman, Tim CIN 2 Great Americ... PL 380 102.5 36.5 74.8 143 -10 6 3 381 29
06/16/17 Video View Mesoraco, Devin CIN Wood, Alex LAD 8 Great Americ... PL 427 105.0 25.7 96.1 88 0 1 1 425 29
06/17/17 Video View Bellinger, Cody LAD Wojciechowski, Asher CIN 3 Great Americ... JE 365 102.0 24.4 65.6 61 0 1 0 364 10
06/17/17 Video View Pederson, Joc LAD Wojciechowski, Asher CIN 3 Great Americ... ND 429 107.9 25.5 76.4 84 0 2 1 426 29
06/17/17 Video View Puig, Yasiel LAD Brice, Austin CIN 6 Great Americ... PL 416 103.1 25.2 93.2 86 -2 1 1 415 23
06/17/17 Video View Puig, Yasiel LAD Buchanan, Jake CIN 8 Great Americ... ND 419 103.8 28.9 104.8 92 7 3 2 409 30
06/18/17 Video View Forsythe, Logan LAD Arroyo, Bronson CIN 3 Great Americ... ND 438 108.7 28.0 104.9 100 0 3 2 434 30
06/18/17 Video View Turner, Justin LAD Peralta, Wandy CIN 6 Great Americ... ND 393 100.2 33.9 121.7 95 21 3 2 369 30
06/18/17 Video View Duvall, Adam CIN Dayton, Grant LAD 6 Great Americ... PL 409 102.7 28.8 93.3 115 -16 2 1 419 27
06/18/17 Video View Gennett, Scooter CIN Fields, Josh LAD 7 Great Americ... PL 370 101.8 28.7 54.4 76 -1 2 1 368 30
06/18/17 Video View Suarez, Eugenio CIN Baez, Pedro LAD 8 Great Americ... PL 400 104.6 23.8 103.2 63 2 1 1 397 28


About HitTracker | Contact Us
© 2006-2017 HitTrackerOnline